sensor_id;sensor_type;location;lat;lon;timestamp;P1;durP1;ratioP1;P2;durP2;ratioP2
6739;SDS011;3407;49.882;10.920;2022-08-04T00:03:18;2.50;;;2.30;;
6739;SDS011;3407;49.882;10.920;2022-08-04T00:08:21;2.80;;;2.60;;
6739;SDS011;3407;49.882;10.920;2022-08-04T00:13:29;2.87;;;2.60;;
6739;SDS011;3407;49.882;10.920;2022-08-04T00:18:26;3.37;;;2.87;;
6739;SDS011;3407;49.882;10.920;2022-08-04T00:23:44;5.47;;;3.10;;
6739;SDS011;3407;49.882;10.920;2022-08-04T00:28:40;3.87;;;3.20;;
6739;SDS011;3407;49.882;10.920;2022-08-04T00:33:37;3.40;;;3.10;;
6739;SDS011;3407;49.882;10.920;2022-08-04T00:38:32;7.63;;;3.40;;
6739;SDS011;3407;49.882;10.920;2022-08-04T00:43:30;3.80;;;3.13;;
6739;SDS011;3407;49.882;10.920;2022-08-04T00:53:59;3.27;;;2.80;;
6739;SDS011;3407;49.882;10.920;2022-08-04T01:15:05;4.80;;;4.07;;
6739;SDS011;3407;49.882;10.920;2022-08-04T01:20:14;6.97;;;4.30;;
6739;SDS011;3407;49.882;10.920;2022-08-04T01:30:34;4.30;;;3.73;;
6739;SDS011;3407;49.882;10.920;2022-08-04T01:35:37;3.87;;;3.33;;
6739;SDS011;3407;49.882;10.920;2022-08-04T01:40:42;5.67;;;3.17;;
6739;SDS011;3407;49.882;10.920;2022-08-04T01:45:39;5.80;;;3.20;;
6739;SDS011;3407;49.882;10.920;2022-08-04T01:50:35;8.93;;;3.80;;
6739;SDS011;3407;49.882;10.920;2022-08-04T01:55:32;3.27;;;2.97;;
6739;SDS011;3407;49.882;10.920;2022-08-04T02:00:29;3.60;;;3.13;;
6739;SDS011;3407;49.882;10.920;2022-08-04T02:05:25;4.13;;;3.40;;
6739;SDS011;3407;49.882;10.920;2022-08-04T02:15:40;5.27;;;3.70;;
6739;SDS011;3407;49.882;10.920;2022-08-04T02:20:45;3.33;;;3.03;;
6739;SDS011;3407;49.882;10.920;2022-08-04T02:25:46;6.83;;;4.63;;
6739;SDS011;3407;49.882;10.920;2022-08-04T02:30:49;4.10;;;3.70;;
6739;SDS011;3407;49.882;10.920;2022-08-04T02:36:08;4.67;;;3.50;;
6739;SDS011;3407;49.882;10.920;2022-08-04T02:41:25;3.83;;;3.27;;
6739;SDS011;3407;49.882;10.920;2022-08-04T02:46:22;8.33;;;3.90;;
6739;SDS011;3407;49.882;10.920;2022-08-04T02:51:20;5.57;;;4.20;;
6739;SDS011;3407;49.882;10.920;2022-08-04T02:56:23;4.33;;;3.67;;
6739;SDS011;3407;49.882;10.920;2022-08-04T03:01:21;4.20;;;3.40;;
6739;SDS011;3407;49.882;10.920;2022-08-04T03:06:29;5.47;;;3.57;;
6739;SDS011;3407;49.882;10.920;2022-08-04T03:28:09;11.13;;;8.07;;
6739;SDS011;3407;49.882;10.920;2022-08-04T03:49:48;7.00;;;4.40;;
6739;SDS011;3407;49.882;10.920;2022-08-04T04:00:17;4.27;;;3.33;;
6739;SDS011;3407;49.882;10.920;2022-08-04T04:27:17;3.67;;;3.37;;
6739;SDS011;3407;49.882;10.920;2022-08-04T04:32:26;6.53;;;3.10;;
6739;SDS011;3407;49.882;10.920;2022-08-04T04:53:28;5.57;;;3.70;;
6739;SDS011;3407;49.882;10.920;2022-08-04T04:58:37;6.77;;;5.97;;
6739;SDS011;3407;49.882;10.920;2022-08-04T05:14:17;6.03;;;3.80;;
6739;SDS011;3407;49.882;10.920;2022-08-04T05:19:42;4.23;;;3.63;;
6739;SDS011;3407;49.882;10.920;2022-08-04T05:24:54;6.47;;;4.50;;
6739;SDS011;3407;49.882;10.920;2022-08-04T05:29:56;4.30;;;3.27;;
6739;SDS011;3407;49.882;10.920;2022-08-04T05:34:56;4.00;;;3.40;;
6739;SDS011;3407;49.882;10.920;2022-08-04T05:40:03;7.23;;;5.70;;
6739;SDS011;3407;49.882;10.920;2022-08-04T05:45:00;6.63;;;4.03;;
6739;SDS011;3407;49.882;10.920;2022-08-04T05:49:58;3.30;;;3.00;;
6739;SDS011;3407;49.882;10.920;2022-08-04T05:54:55;3.45;;;2.70;;
6739;SDS011;3407;49.882;10.920;2022-08-04T05:59:52;4.07;;;3.25;;
6739;SDS011;3407;49.882;10.920;2022-08-04T06:04:51;4.72;;;3.10;;
6739;SDS011;3407;49.882;10.920;2022-08-04T06:09:47;6.50;;;3.80;;
6739;SDS011;3407;49.882;10.920;2022-08-04T06:14:44;7.88;;;3.67;;
6739;SDS011;3407;49.882;10.920;2022-08-04T06:19:42;5.25;;;3.58;;
6739;SDS011;3407;49.882;10.920;2022-08-04T06:24:38;9.00;;;3.33;;
6739;SDS011;3407;49.882;10.920;2022-08-04T06:29:35;9.60;;;4.03;;
6739;SDS011;3407;49.882;10.920;2022-08-04T06:34:35;6.20;;;3.20;;
6739;SDS011;3407;49.882;10.920;2022-08-04T06:39:31;10.90;;;2.97;;
6739;SDS011;3407;49.882;10.920;2022-08-04T06:44:28;5.53;;;3.30;;
6739;SDS011;3407;49.882;10.920;2022-08-04T06:49:24;4.23;;;2.97;;
6739;SDS011;3407;49.882;10.920;2022-08-04T06:54:21;9.00;;;2.90;;
6739;SDS011;3407;49.882;10.920;2022-08-04T06:59:16;3.00;;;2.43;;
6739;SDS011;3407;49.882;10.920;2022-08-04T07:04:14;5.63;;;5.07;;
6739;SDS011;3407;49.882;10.920;2022-08-04T07:09:10;2.80;;;2.20;;
6739;SDS011;3407;49.882;10.920;2022-08-04T07:14:05;4.37;;;1.83;;
6739;SDS011;3407;49.882;10.920;2022-08-04T07:19:02;4.30;;;3.73;;
6739;SDS011;3407;49.882;10.920;2022-08-04T07:23:57;2.30;;;2.10;;
6739;SDS011;3407;49.882;10.920;2022-08-04T07:28:53;2.40;;;2.20;;
6739;SDS011;3407;49.882;10.920;2022-08-04T07:33:49;2.92;;;2.15;;
6739;SDS011;3407;49.882;10.920;2022-08-04T07:38:45;1.90;;;1.80;;
6739;SDS011;3407;49.882;10.920;2022-08-04T07:43:40;2.47;;;1.80;;
6739;SDS011;3407;49.882;10.920;2022-08-04T07:48:36;1.67;;;1.58;;
6739;SDS011;3407;49.882;10.920;2022-08-04T07:53:33;2.97;;;1.98;;
6739;SDS011;3407;49.882;10.920;2022-08-04T07:58:29;3.92;;;1.70;;
6739;SDS011;3407;49.882;10.920;2022-08-04T08:03:25;2.33;;;1.40;;
6739;SDS011;3407;49.882;10.920;2022-08-04T08:08:21;1.40;;;1.30;;
6739;SDS011;3407;49.882;10.920;2022-08-04T08:13:16;1.77;;;1.42;;
6739;SDS011;3407;49.882;10.920;2022-08-04T08:18:12;1.77;;;1.60;;
6739;SDS011;3407;49.882;10.920;2022-08-04T08:23:08;1.63;;;1.40;;
6739;SDS011;3407;49.882;10.920;2022-08-04T08:28:04;1.85;;;1.50;;
6739;SDS011;3407;49.882;10.920;2022-08-04T08:33:01;1.92;;;1.60;;
6739;SDS011;3407;49.882;10.920;2022-08-04T08:38:00;1.50;;;1.40;;
6739;SDS011;3407;49.882;10.920;2022-08-04T09:14:38;2.50;;;1.50;;
6739;SDS011;3407;49.882;10.920;2022-08-04T09:19:44;1.05;;;1.00;;
6739;SDS011;3407;49.882;10.920;2022-08-04T09:25:02;1.50;;;1.35;;
6739;SDS011;3407;49.882;10.920;2022-08-04T09:30:05;2.40;;;2.20;;
6739;SDS011;3407;49.882;10.920;2022-08-04T09:35:05;3.28;;;2.25;;
6739;SDS011;3407;49.882;10.920;2022-08-04T09:45:57;1.60;;;1.50;;
6739;SDS011;3407;49.882;10.920;2022-08-04T09:51:07;2.35;;;1.45;;
6739;SDS011;3407;49.882;10.920;2022-08-04T09:56:17;3.47;;;1.38;;
6739;SDS011;3407;49.882;10.920;2022-08-04T10:01:18;1.83;;;1.50;;
6739;SDS011;3407;49.882;10.920;2022-08-04T10:06:23;1.90;;;1.80;;
6739;SDS011;3407;49.882;10.920;2022-08-04T10:11:34;3.85;;;2.05;;
6739;SDS011;3407;49.882;10.920;2022-08-04T10:16:55;3.47;;;1.65;;
6739;SDS011;3407;49.882;10.920;2022-08-04T10:27:24;1.58;;;1.48;;
6739;SDS011;3407;49.882;10.920;2022-08-04T10:32:28;2.65;;;1.55;;
6739;SDS011;3407;49.882;10.920;2022-08-04T10:37:31;1.83;;;1.33;;
6739;SDS011;3407;49.882;10.920;2022-08-04T10:42:55;1.90;;;1.80;;
6739;SDS011;3407;49.882;10.920;2022-08-04T10:53:02;2.80;;;1.40;;
6739;SDS011;3407;49.882;10.920;2022-08-04T10:58:04;3.22;;;1.80;;
6739;SDS011;3407;49.882;10.920;2022-08-04T11:03:20;1.90;;;1.35;;
6739;SDS011;3407;49.882;10.920;2022-08-04T11:08:32;1.30;;;1.17;;
6739;SDS011;3407;49.882;10.920;2022-08-04T11:13:37;1.30;;;1.25;;
6739;SDS011;3407;49.882;10.920;2022-08-04T11:24:08;1.30;;;1.30;;
6739;SDS011;3407;49.882;10.920;2022-08-04T11:34:26;1.60;;;1.50;;
6739;SDS011;3407;49.882;10.920;2022-08-04T11:44:25;1.70;;;1.60;;
6739;SDS011;3407;49.882;10.920;2022-08-04T11:54:35;1.42;;;1.20;;
6739;SDS011;3407;49.882;10.920;2022-08-04T11:59:32;1.73;;;1.63;;
6739;SDS011;3407;49.882;10.920;2022-08-04T12:04:43;1.95;;;1.75;;
6739;SDS011;3407;49.882;10.920;2022-08-04T12:20:24;1.70;;;1.60;;
6739;SDS011;3407;49.882;10.920;2022-08-04T12:25:29;1.33;;;1.33;;
6739;SDS011;3407;49.882;10.920;2022-08-04T12:30:28;1.50;;;1.40;;
6739;SDS011;3407;49.882;10.920;2022-08-04T12:35:33;1.55;;;1.45;;
6739;SDS011;3407;49.882;10.920;2022-08-04T12:40:38;1.90;;;1.80;;
6739;SDS011;3407;49.882;10.920;2022-08-04T12:45:42;1.60;;;1.50;;
6739;SDS011;3407;49.882;10.920;2022-08-04T12:50:41;1.40;;;1.38;;
6739;SDS011;3407;49.882;10.920;2022-08-04T12:55:46;3.17;;;1.58;;
6739;SDS011;3407;49.882;10.920;2022-08-04T13:00:46;1.30;;;1.30;;
6739;SDS011;3407;49.882;10.920;2022-08-04T13:05:51;2.70;;;1.30;;
6739;SDS011;3407;49.882;10.920;2022-08-04T13:10:50;1.33;;;1.25;;
6739;SDS011;3407;49.882;10.920;2022-08-04T13:15:55;4.57;;;1.40;;
6739;SDS011;3407;49.882;10.920;2022-08-04T13:20:52;1.65;;;1.23;;
6739;SDS011;3407;49.882;10.920;2022-08-04T13:25:49;2.50;;;1.30;;
6739;SDS011;3407;49.882;10.920;2022-08-04T13:30:47;1.45;;;1.35;;
6739;SDS011;3407;49.882;10.920;2022-08-04T13:35:48;5.53;;;4.13;;
6739;SDS011;3407;49.882;10.920;2022-08-04T13:40:44;1.60;;;1.50;;
6739;SDS011;3407;49.882;10.920;2022-08-04T13:45:40;9.55;;;7.00;;
6739;SDS011;3407;49.882;10.920;2022-08-04T13:50:36;1.95;;;1.83;;
6739;SDS011;3407;49.882;10.920;2022-08-04T13:55:34;1.58;;;1.48;;
6739;SDS011;3407;49.882;10.920;2022-08-04T14:00:38;3.63;;;2.90;;
6739;SDS011;3407;49.882;10.920;2022-08-04T14:06:12;1.48;;;1.38;;
6739;SDS011;3407;49.882;10.920;2022-08-04T14:11:10;1.52;;;1.42;;
6739;SDS011;3407;49.882;10.920;2022-08-04T14:16:13;2.53;;;2.00;;
6739;SDS011;3407;49.882;10.920;2022-08-04T14:21:14;3.42;;;1.20;;
6739;SDS011;3407;49.882;10.920;2022-08-04T14:31:11;1.55;;;1.45;;
6739;SDS011;3407;49.882;10.920;2022-08-04T14:36:09;5.68;;;1.65;;
6739;SDS011;3407;49.882;10.920;2022-08-04T14:41:05;2.03;;;1.83;;
6739;SDS011;3407;49.882;10.920;2022-08-04T14:46:04;2.15;;;1.95;;
6739;SDS011;3407;49.882;10.920;2022-08-04T14:51:00;1.50;;;1.40;;
6739;SDS011;3407;49.882;10.920;2022-08-04T14:55:56;1.23;;;1.20;;
6739;SDS011;3407;49.882;10.920;2022-08-04T15:00:55;1.50;;;1.40;;
6739;SDS011;3407;49.882;10.920;2022-08-04T15:05:52;1.70;;;1.60;;
6739;SDS011;3407;49.882;10.920;2022-08-04T15:10:49;1.85;;;1.35;;
6739;SDS011;3407;49.882;10.920;2022-08-04T15:15:45;2.42;;;1.42;;
6739;SDS011;3407;49.882;10.920;2022-08-04T15:20:40;4.72;;;1.67;;
6739;SDS011;3407;49.882;10.920;2022-08-04T15:25:41;3.65;;;1.80;;
6739;SDS011;3407;49.882;10.920;2022-08-04T15:30:40;1.48;;;1.38;;
6739;SDS011;3407;49.882;10.920;2022-08-04T15:35:37;3.17;;;1.38;;
6739;SDS011;3407;49.882;10.920;2022-08-04T15:40:48;1.50;;;1.35;;
6739;SDS011;3407;49.882;10.920;2022-08-04T15:45:54;1.40;;;1.30;;
6739;SDS011;3407;49.882;10.920;2022-08-04T15:55:55;2.35;;;1.73;;
6739;SDS011;3407;49.882;10.920;2022-08-04T16:05:49;2.20;;;1.23;;
6739;SDS011;3407;49.882;10.920;2022-08-04T16:10:45;1.50;;;1.40;;
6739;SDS011;3407;49.882;10.920;2022-08-04T16:20:37;1.63;;;1.40;;
6739;SDS011;3407;49.882;10.920;2022-08-04T16:25:41;3.33;;;1.60;;
6739;SDS011;3407;49.882;10.920;2022-08-04T16:30:41;1.58;;;1.48;;
6739;SDS011;3407;49.882;10.920;2022-08-04T16:35:36;1.70;;;1.60;;
6739;SDS011;3407;49.882;10.920;2022-08-04T16:51:10;1.60;;;1.50;;
6739;SDS011;3407;49.882;10.920;2022-08-04T16:56:09;1.63;;;1.27;;
6739;SDS011;3407;49.882;10.920;2022-08-04T17:01:07;1.40;;;1.30;;
6739;SDS011;3407;49.882;10.920;2022-08-04T17:06:04;2.97;;;1.58;;
6739;SDS011;3407;49.882;10.920;2022-08-04T17:11:00;1.80;;;1.55;;
6739;SDS011;3407;49.882;10.920;2022-08-04T17:15:58;1.60;;;1.50;;
6739;SDS011;3407;49.882;10.920;2022-08-04T17:20:56;2.17;;;1.67;;
6739;SDS011;3407;49.882;10.920;2022-08-04T17:25:55;3.25;;;2.95;;
6739;SDS011;3407;49.882;10.920;2022-08-04T17:30:54;1.38;;;1.27;;
6739;SDS011;3407;49.882;10.920;2022-08-04T17:35:52;2.85;;;1.52;;
6739;SDS011;3407;49.882;10.920;2022-08-04T17:40:52;1.75;;;1.65;;
6739;SDS011;3407;49.882;10.920;2022-08-04T17:51:11;1.30;;;1.30;;
6739;SDS011;3407;49.882;10.920;2022-08-04T18:01:38;3.75;;;1.98;;
6739;SDS011;3407;49.882;10.920;2022-08-04T18:06:34;1.70;;;1.60;;
6739;SDS011;3407;49.882;10.920;2022-08-04T18:11:30;1.93;;;1.47;;
6739;SDS011;3407;49.882;10.920;2022-08-04T18:16:26;1.63;;;1.40;;
6739;SDS011;3407;49.882;10.920;2022-08-04T18:21:21;2.77;;;1.70;;
6739;SDS011;3407;49.882;10.920;2022-08-04T18:26:17;1.83;;;1.50;;
6739;SDS011;3407;49.882;10.920;2022-08-04T18:31:12;1.77;;;1.60;;
6739;SDS011;3407;49.882;10.920;2022-08-04T18:36:08;2.57;;;1.67;;
6739;SDS011;3407;49.882;10.920;2022-08-04T18:41:04;2.83;;;2.10;;
6739;SDS011;3407;49.882;10.920;2022-08-04T18:46:00;5.17;;;4.13;;
6739;SDS011;3407;49.882;10.920;2022-08-04T18:50:55;3.47;;;3.10;;
6739;SDS011;3407;49.882;10.920;2022-08-04T18:55:51;4.70;;;3.77;;
6739;SDS011;3407;49.882;10.920;2022-08-04T19:00:46;6.13;;;5.53;;
6739;SDS011;3407;49.882;10.920;2022-08-04T19:05:42;3.50;;;3.20;;
6739;SDS011;3407;49.882;10.920;2022-08-04T19:10:38;2.90;;;2.17;;
6739;SDS011;3407;49.882;10.920;2022-08-04T19:15:33;3.53;;;2.40;;
6739;SDS011;3407;49.882;10.920;2022-08-04T19:20:29;4.43;;;2.33;;
6739;SDS011;3407;49.882;10.920;2022-08-04T19:25:24;7.77;;;3.10;;
6739;SDS011;3407;49.882;10.920;2022-08-04T19:30:20;5.77;;;5.20;;
6739;SDS011;3407;49.882;10.920;2022-08-04T19:35:15;3.77;;;3.10;;
6739;SDS011;3407;49.882;10.920;2022-08-04T19:40:11;5.27;;;3.50;;
6739;SDS011;3407;49.882;10.920;2022-08-04T19:45:08;7.00;;;3.47;;
6739;SDS011;3407;49.882;10.920;2022-08-04T19:50:04;10.20;;;7.80;;
6739;SDS011;3407;49.882;10.920;2022-08-04T19:55:01;7.23;;;5.50;;
6739;SDS011;3407;49.882;10.920;2022-08-04T19:59:58;4.77;;;2.60;;
6739;SDS011;3407;49.882;10.920;2022-08-04T20:04:53;4.90;;;3.10;;
6739;SDS011;3407;49.882;10.920;2022-08-04T20:09:49;3.00;;;2.70;;
6739;SDS011;3407;49.882;10.920;2022-08-04T20:14:44;4.13;;;2.70;;
6739;SDS011;3407;49.882;10.920;2022-08-04T20:19:40;4.00;;;2.63;;
6739;SDS011;3407;49.882;10.920;2022-08-04T20:24:35;5.00;;;2.70;;
6739;SDS011;3407;49.882;10.920;2022-08-04T20:29:31;4.40;;;2.67;;
6739;SDS011;3407;49.882;10.920;2022-08-04T20:34:27;3.83;;;2.43;;
6739;SDS011;3407;49.882;10.920;2022-08-04T20:39:22;3.80;;;2.53;;
6739;SDS011;3407;49.882;10.920;2022-08-04T20:44:18;2.50;;;2.30;;
6739;SDS011;3407;49.882;10.920;2022-08-04T20:49:13;4.20;;;2.57;;
6739;SDS011;3407;49.882;10.920;2022-08-04T20:54:09;4.13;;;3.83;;
6739;SDS011;3407;49.882;10.920;2022-08-04T20:59:04;3.70;;;2.90;;
6739;SDS011;3407;49.882;10.920;2022-08-04T21:04:00;5.83;;;2.87;;
6739;SDS011;3407;49.882;10.920;2022-08-04T21:09:14;6.83;;;2.90;;
6739;SDS011;3407;49.882;10.920;2022-08-04T21:14:09;3.37;;;3.07;;
6739;SDS011;3407;49.882;10.920;2022-08-04T21:19:05;5.70;;;3.50;;
6739;SDS011;3407;49.882;10.920;2022-08-04T21:24:01;5.27;;;3.13;;
6739;SDS011;3407;49.882;10.920;2022-08-04T21:28:56;3.17;;;2.83;;
6739;SDS011;3407;49.882;10.920;2022-08-04T21:33:52;3.00;;;2.70;;
6739;SDS011;3407;49.882;10.920;2022-08-04T21:38:47;3.53;;;2.90;;
6739;SDS011;3407;49.882;10.920;2022-08-04T21:43:44;5.50;;;2.93;;
6739;SDS011;3407;49.882;10.920;2022-08-04T21:48:40;4.27;;;2.87;;
6739;SDS011;3407;49.882;10.920;2022-08-04T21:53:35;2.90;;;2.30;;
6739;SDS011;3407;49.882;10.920;2022-08-04T21:58:31;5.37;;;3.87;;
6739;SDS011;3407;49.882;10.920;2022-08-04T22:03:26;5.63;;;3.23;;
6739;SDS011;3407;49.882;10.920;2022-08-04T22:08:22;3.47;;;3.00;;
6739;SDS011;3407;49.882;10.920;2022-08-04T22:13:17;3.00;;;2.80;;
6739;SDS011;3407;49.882;10.920;2022-08-04T22:18:13;4.57;;;2.87;;
6739;SDS011;3407;49.882;10.920;2022-08-04T22:23:08;4.00;;;2.87;;
6739;SDS011;3407;49.882;10.920;2022-08-04T22:28:04;3.50;;;3.20;;
6739;SDS011;3407;49.882;10.920;2022-08-04T22:33:02;6.27;;;3.07;;
6739;SDS011;3407;49.882;10.920;2022-08-04T22:37:59;3.70;;;3.27;;
6739;SDS011;3407;49.882;10.920;2022-08-04T22:42:54;6.63;;;3.80;;
6739;SDS011;3407;49.882;10.920;2022-08-04T22:47:54;3.77;;;3.10;;
6739;SDS011;3407;49.882;10.920;2022-08-04T22:52:50;3.43;;;3.00;;
6739;SDS011;3407;49.882;10.920;2022-08-04T22:57:45;3.83;;;3.43;;
6739;SDS011;3407;49.882;10.920;2022-08-04T23:02:41;3.70;;;3.30;;
6739;SDS011;3407;49.882;10.920;2022-08-04T23:07:37;3.57;;;3.00;;
6739;SDS011;3407;49.882;10.920;2022-08-04T23:12:32;4.43;;;3.23;;
6739;SDS011;3407;49.882;10.920;2022-08-04T23:17:28;3.40;;;3.10;;
6739;SDS011;3407;49.882;10.920;2022-08-04T23:22:23;3.83;;;3.40;;
6739;SDS011;3407;49.882;10.920;2022-08-04T23:27:19;4.53;;;3.20;;
6739;SDS011;3407;49.882;10.920;2022-08-04T23:32:14;5.13;;;3.40;;
6739;SDS011;3407;49.882;10.920;2022-08-04T23:37:11;4.07;;;3.40;;
6739;SDS011;3407;49.882;10.920;2022-08-04T23:42:06;7.83;;;3.60;;
6739;SDS011;3407;49.882;10.920;2022-08-04T23:47:03;5.47;;;3.30;;
6739;SDS011;3407;49.882;10.920;2022-08-04T23:51:59;4.23;;;3.53;;
6739;SDS011;3407;49.882;10.920;2022-08-04T23:56:54;3.73;;;3.40;;
